createdAt,value
2019-04-27T00:01:10.219Z,101027.82
2019-04-27T00:03:46.287Z,101023.37
2019-04-27T00:06:20.577Z,101025.08
2019-04-27T00:08:53.933Z,101019.21
2019-04-27T00:11:33.078Z,101019.06
2019-04-27T00:14:04.415Z,101021.17
2019-04-27T00:16:50.986Z,101018.24
2019-04-27T00:19:27.285Z,101010.53
2019-04-27T00:22:06.191Z,101018.07
2019-04-27T00:24:38.191Z,101018.25
2019-04-27T00:27:09.794Z,101017.20
2019-04-27T00:29:42.806Z,101023.73
2019-04-27T00:32:14.582Z,101024.26
2019-04-27T00:34:46.102Z,101026.45
2019-04-27T00:37:31.309Z,101027.64
2019-04-27T00:40:04.399Z,101018.76
2019-04-27T00:42:35.981Z,101019.28
2019-04-27T00:45:07.669Z,101021.48
2019-04-27T00:47:39.159Z,101026.45
2019-04-27T00:50:10.611Z,101014.49
2019-04-27T00:52:42.945Z,101016.18
2019-04-27T00:55:14.562Z,101016.70
2019-04-27T00:57:59.709Z,101012.09
2019-04-27T01:00:35.863Z,101013.48
2019-04-27T01:03:09.062Z,101012.97
2019-04-27T01:05:40.515Z,101007.84
2019-04-27T01:08:13.797Z,101010.23
2019-04-27T01:10:45.266Z,101009.04
2019-04-27T01:13:16.760Z,101012.11
2019-04-27T01:15:48.164Z,101011.95
2019-04-27T01:18:19.598Z,101002.91
2019-04-27T01:20:50.979Z,101003.55
2019-04-27T01:23:22.475Z,101005.63
2019-04-27T01:26:13.106Z,101004.38
2019-04-27T01:28:46.364Z,101005.55
2019-04-27T01:31:19.514Z,101004.70
2019-04-27T01:33:50.829Z,101004.51
2019-04-27T01:36:22.223Z,101000.25
2019-04-27T01:38:53.800Z,100995.30
2019-04-27T01:41:25.203Z,100998.72
2019-04-27T01:43:56.693Z,101000.41
2019-04-27T01:46:29.589Z,100994.45
2019-04-27T01:49:01.238Z,100996.83
2019-04-27T01:51:32.923Z,100996.30
2019-04-27T01:54:06.195Z,100995.78
2019-04-27T01:56:39.336Z,100992.66
2019-04-27T01:59:10.838Z,101001.50
2019-04-27T02:02:02.700Z,100994.16
2019-04-27T02:04:49.378Z,100993.38
2019-04-27T02:07:20.882Z,100996.11
2019-04-27T02:09:52.491Z,100990.97
2019-04-27T02:12:23.886Z,100992.83
2019-04-27T02:14:55.337Z,100990.77
2019-04-27T02:17:28.646Z,100990.24
2019-04-27T02:20:00.291Z,100991.36
2019-04-27T02:22:31.799Z,100984.75
2019-04-27T02:25:04.270Z,100990.52
2019-04-27T02:27:38.827Z,100983.88
2019-04-27T02:30:14.334Z,100984.05
2019-04-27T02:33:03.861Z,100985.11
2019-04-27T02:35:35.387Z,100986.17
2019-04-27T02:38:06.869Z,100990.77
2019-04-27T02:40:49.827Z,100992.20
2019-04-27T02:43:23.856Z,100985.98
2019-04-27T02:45:54.568Z,100981.31
2019-04-27T02:48:25.702Z,100982.54
2019-04-27T02:50:59.856Z,100983.35
2019-04-27T02:53:49.920Z,100987.06
2019-04-27T02:56:21.331Z,100987.52
2019-04-27T02:58:53.094Z,100990.48
2019-04-27T03:01:26.244Z,100991.67
2019-04-27T03:04:00.034Z,100991.41
2019-04-27T03:06:30.962Z,100994.47
2019-04-27T03:09:02.346Z,100989.27
2019-04-27T03:11:36.145Z,100986.42
2019-04-27T03:14:29.344Z,100992.73
2019-04-27T03:16:55.692Z,100989.96
2019-04-27T03:19:40.716Z,100989.37
2019-04-27T03:22:19.158Z,100991.53
2019-04-27T03:25:01.005Z,100990.01
2019-04-27T03:27:43.926Z,100991.30
2019-04-27T03:30:16.295Z,100983.26
2019-04-27T03:32:51.362Z,100988.03
2019-04-27T03:35:22.788Z,100983.77
2019-04-27T03:37:53.982Z,100984.28
2019-04-27T03:40:25.632Z,100978.48
2019-04-27T03:42:59.599Z,100982.05
2019-04-27T03:45:31.196Z,100982.42
2019-04-27T03:48:03.262Z,100985.16
2019-04-27T03:50:50.593Z,100989.72
2019-04-27T03:53:26.346Z,100990.23
2019-04-27T03:56:15.778Z,100988.55
2019-04-27T03:59:03.833Z,100980.19
2019-04-27T04:01:35.205Z,100987.66
2019-04-27T04:04:06.655Z,100982.70
2019-04-27T04:06:39.977Z,100981.72
2019-04-27T04:09:13.085Z,100980.53
2019-04-27T04:11:46.116Z,100982.91
2019-04-27T04:14:22.049Z,100980.02
2019-04-27T04:17:02.267Z,100969.73
2019-04-27T04:19:47.382Z,100970.41
2019-04-27T04:22:04.262Z,100971.98
2019-04-27T04:24:35.671Z,100975.06
2019-04-27T04:27:07.167Z,100969.74
2019-04-27T04:29:39.460Z,100969.03
2019-04-27T04:32:11.012Z,100966.43
2019-04-27T04:34:42.399Z,100967.80
2019-04-27T04:37:14.071Z,100973.20
2019-04-27T04:39:49.813Z,100972.51
2019-04-27T04:42:20.704Z,100968.22
2019-04-27T04:44:54.239Z,100977.16
2019-04-27T04:47:36.602Z,100968.25
2019-04-27T04:50:14.061Z,100968.45
2019-04-27T04:52:42.450Z,100964.91
2019-04-27T04:55:14.932Z,100962.89
2019-04-27T04:57:46.485Z,100961.12
2019-04-27T05:00:19.951Z,100960.58
2019-04-27T05:02:51.549Z,100960.12
2019-04-27T05:05:23.148Z,100958.31
2019-04-27T05:07:54.642Z,100953.41
2019-04-27T05:10:26.164Z,100938.77
2019-04-27T05:12:59.025Z,100956.49
2019-04-27T05:15:30.462Z,100958.20
2019-04-27T05:18:01.885Z,100960.42
2019-04-27T05:20:39.535Z,100953.97
2019-04-27T05:23:10.770Z,100960.42
2019-04-27T05:25:42.128Z,100952.94
2019-04-27T05:28:13.475Z,100952.59
2019-04-27T05:30:44.921Z,100945.77
2019-04-27T05:33:16.446Z,100944.85
2019-04-27T05:35:49.133Z,100942.05
2019-04-27T05:38:20.768Z,100938.64
2019-04-27T05:40:52.194Z,100940.77
2019-04-27T05:43:35.575Z,100940.00
2019-04-27T05:46:23.295Z,100939.69
2019-04-27T05:48:55.119Z,100937.34
2019-04-27T05:51:36.518Z,100940.33
2019-04-27T05:53:59.809Z,100936.92
2019-04-27T05:56:31.711Z,100948.30
2019-04-27T05:59:03.119Z,100950.73
2019-04-27T06:01:34.586Z,100947.75
2019-04-27T06:04:06.001Z,100950.17
2019-04-27T06:06:37.410Z,100951.17
2019-04-27T06:09:09.548Z,100953.77
2019-04-27T06:11:41.065Z,100949.88
2019-04-27T06:14:12.442Z,100946.34
2019-04-27T06:16:43.887Z,100943.06
2019-04-27T06:19:15.494Z,100943.71
2019-04-27T06:21:47.002Z,100937.39
2019-04-27T06:24:18.748Z,100927.52
2019-04-27T06:26:50.028Z,100924.45
2019-04-27T06:29:21.444Z,100925.53
2019-04-27T06:31:53.968Z,100924.99
2019-04-27T06:34:25.727Z,100928.24
2019-04-27T06:36:57.148Z,100933.31
2019-04-27T06:39:29.805Z,100935.88
2019-04-27T06:42:01.484Z,100937.25
2019-04-27T06:44:33.004Z,100922.33
2019-04-27T06:47:04.548Z,100928.60
2019-04-27T06:49:36.028Z,100924.79
2019-04-27T06:52:08.665Z,100917.11
2019-04-27T06:54:40.357Z,100916.34
2019-04-27T06:57:11.762Z,100913.98
2019-04-27T06:59:43.201Z,100913.61
2019-04-27T07:02:14.549Z,100907.31
2019-04-27T07:04:46.060Z,100905.50
2019-04-27T07:07:19.390Z,100893.73
2019-04-27T07:09:50.699Z,100891.98
2019-04-27T07:12:22.240Z,100893.78
2019-04-27T07:14:55.149Z,100887.95
2019-04-27T07:17:26.668Z,100884.45
2019-04-27T07:19:59.459Z,100877.84
2019-04-27T07:22:31.111Z,100870.11
2019-04-27T07:25:02.601Z,100865.43
2019-04-27T07:27:35.098Z,100863.12
2019-04-27T07:30:11.915Z,100863.44
2019-04-27T07:32:40.412Z,100855.67
2019-04-27T07:35:11.972Z,100853.89
2019-04-27T07:37:43.475Z,100850.79
2019-04-27T07:40:15.182Z,100851.63
2019-04-27T07:42:49.664Z,100843.75
2019-04-27T07:45:29.481Z,100837.72
2019-04-27T07:48:01.786Z,100834.49
2019-04-27T07:50:33.254Z,100827.92
2019-04-27T07:53:04.684Z,100821.22
2019-04-27T07:55:36.066Z,100817.34
2019-04-27T07:58:08.881Z,100811.59
2019-04-27T08:00:40.255Z,100802.41
2019-04-27T08:03:11.732Z,100805.06
2019-04-27T08:05:43.433Z,100803.91
2019-04-27T08:08:15.001Z,100801.59
2019-04-27T08:10:48.390Z,100798.46
2019-04-27T08:13:19.686Z,100803.32
2019-04-27T08:15:51.285Z,100794.71
2019-04-27T08:18:22.772Z,100802.38
2019-04-27T08:20:56.915Z,100803.13
2019-04-27T08:23:27.336Z,100800.71
2019-04-27T08:25:58.965Z,100791.73
2019-04-27T08:28:35.231Z,100798.89
2019-04-27T08:31:08.940Z,100810.33
2019-04-27T08:33:40.459Z,100813.31
2019-04-27T08:36:11.837Z,100810.33
2019-04-27T08:38:43.288Z,100814.82
2019-04-27T08:41:14.736Z,100809.55
2019-04-27T08:43:46.181Z,100815.80
2019-04-27T08:46:18.654Z,100809.47
2019-04-27T08:48:50.171Z,100804.52
2019-04-27T08:51:21.602Z,100810.27
2019-04-27T08:53:52.894Z,100807.86
2019-04-27T08:56:24.255Z,100805.50
2019-04-27T08:58:56.628Z,100801.70
2019-04-27T09:01:29.928Z,100795.19
2019-04-27T09:04:01.335Z,100806.41
2019-04-27T09:06:37.479Z,100808.66
2019-04-27T09:09:10.411Z,100800.05
2019-04-27T09:11:46.342Z,100811.52
2019-04-27T09:14:22.246Z,100803.39
2019-04-27T09:17:00.101Z,100805.14
2019-04-27T09:19:45.606Z,100798.91
2019-04-27T09:22:19.281Z,100795.27
2019-04-27T09:24:50.208Z,100796.75
2019-04-27T09:27:21.613Z,100792.30
2019-04-27T09:29:53.121Z,100783.38
2019-04-27T09:32:24.586Z,100789.73
2019-04-27T09:34:56.974Z,100784.36
2019-04-27T09:37:28.520Z,100758.97
2019-04-27T09:40:00.400Z,100768.28
2019-04-27T09:42:32.168Z,100770.23
2019-04-27T09:45:06.865Z,100773.66
2019-04-27T09:47:39.116Z,100764.16
2019-04-27T09:50:10.874Z,100757.94
2019-04-27T09:52:42.376Z,100754.59
2019-04-27T09:55:16.256Z,100757.83
2019-04-27T09:57:47.580Z,100754.67
2019-04-27T10:00:19.829Z,100756.25
2019-04-27T10:02:51.357Z,100752.84
2019-04-27T10:05:22.852Z,100754.55
2019-04-27T10:07:54.290Z,100754.52
2019-04-27T10:10:26.825Z,100757.47
2019-04-27T10:12:58.558Z,100759.33
2019-04-27T10:15:30.092Z,100746.33
2019-04-27T10:18:02.085Z,100757.17
2019-04-27T10:20:38.715Z,100750.98
2019-04-27T10:23:07.799Z,100746.53
2019-04-27T10:25:39.334Z,100747.84
2019-04-27T10:28:10.782Z,100753.20
2019-04-27T10:30:42.233Z,100757.28
2019-04-27T10:33:13.685Z,100750.88
2019-04-27T10:35:45.128Z,100744.17
2019-04-27T10:38:17.333Z,100744.08
2019-04-27T10:40:48.838Z,100744.08
2019-04-27T10:43:20.308Z,100738.17
2019-04-27T10:45:51.852Z,100737.78
2019-04-27T10:48:23.312Z,100736.27
2019-04-27T10:50:54.764Z,100734.57
2019-04-27T10:53:26.908Z,100730.73
2019-04-27T10:55:58.457Z,100727.92
2019-04-27T10:58:29.821Z,100724.70
2019-04-27T11:01:02.789Z,100728.80
2019-04-27T11:03:50.889Z,100723.73
2019-04-27T11:06:36.216Z,100717.72
2019-04-27T11:09:09.889Z,100717.12
2019-04-27T11:11:42.161Z,100708.52
2019-04-27T11:14:13.731Z,100706.50
2019-04-27T11:16:46.049Z,100705.27
2019-04-27T11:19:17.697Z,100694.44
2019-04-27T11:21:49.189Z,100692.12
2019-04-27T11:24:20.583Z,100689.80
2019-04-27T11:26:51.980Z,100692.81
2019-04-27T11:29:23.491Z,100686.83
2019-04-27T11:31:55.651Z,100685.19
2019-04-27T11:34:45.878Z,100685.20
2019-04-27T11:37:19.336Z,100668.89
2019-04-27T11:39:50.603Z,100671.65
2019-04-27T11:42:23.146Z,100674.67
2019-04-27T11:44:57.930Z,100664.73
2019-04-27T11:47:27.627Z,100663.34
2019-04-27T11:49:58.997Z,100658.21
2019-04-27T11:52:31.476Z,100647.13
2019-04-27T11:55:03.010Z,100651.22
2019-04-27T11:57:37.700Z,100638.08
2019-04-27T12:00:12.916Z,100636.30
2019-04-27T12:02:45.709Z,100642.88
2019-04-27T12:05:17.403Z,100648.03
2019-04-27T12:07:48.941Z,100639.20
2019-04-27T12:10:20.436Z,100631.50
2019-04-27T12:12:51.803Z,100624.45
2019-04-27T12:15:23.564Z,100626.60
2019-04-27T12:17:56.132Z,100623.69
2019-04-27T12:20:27.750Z,100612.71
2019-04-27T12:22:59.135Z,100602.41
2019-04-27T12:25:30.482Z,100608.65
2019-04-27T12:28:06.362Z,100612.87
2019-04-27T12:30:45.004Z,100602.63
2019-04-27T12:33:16.541Z,100592.01
2019-04-27T12:35:48.358Z,100587.48
2019-04-27T12:38:19.980Z,100576.69
2019-04-27T12:40:51.448Z,100583.45
2019-04-27T12:43:23.079Z,100587.98
2019-04-27T12:45:55.959Z,100585.02
2019-04-27T12:48:27.534Z,100582.58
2019-04-27T12:50:59.924Z,100568.89
2019-04-27T12:53:48.337Z,100574.62
2019-04-27T12:56:13.704Z,100561.58
2019-04-27T12:58:47.554Z,100564.31
2019-04-27T13:01:21.034Z,100558.29
2019-04-27T13:03:52.509Z,100548.44
2019-04-27T13:06:24.236Z,100545.37
2019-04-27T13:08:55.868Z,100548.44
2019-04-27T13:11:27.389Z,100530.66
2019-04-27T13:13:58.840Z,100544.08
2019-04-27T13:16:30.587Z,100541.33
2019-04-27T13:19:02.068Z,100540.13
2019-04-27T13:21:33.569Z,100537.17
2019-04-27T13:24:07.021Z,100529.64
2019-04-27T13:26:38.338Z,100520.46
2019-04-27T13:29:09.930Z,100524.31
2019-04-27T13:31:41.536Z,100523.39
2019-04-27T13:34:13.002Z,100514.81
2019-04-27T13:36:45.663Z,100516.86
2019-04-27T13:39:17.417Z,100511.33
2019-04-27T13:41:49.078Z,100512.31
2019-04-27T13:44:20.486Z,100512.63
2019-04-27T13:47:09.745Z,100510.00
2019-04-27T13:49:48.836Z,100502.34
2019-04-27T13:52:21.962Z,100499.59
2019-04-27T13:54:53.309Z,100488.95
2019-04-27T13:57:26.489Z,100490.65
2019-04-27T13:59:58.145Z,100475.02
2019-04-27T14:02:32.263Z,100491.28
2019-04-27T14:05:03.033Z,100486.36
2019-04-27T14:07:34.549Z,100482.40
2019-04-27T14:10:07.183Z,100479.02
2019-04-27T14:12:38.748Z,100475.38
2019-04-27T14:15:10.234Z,100473.52
2019-04-27T14:17:41.832Z,100473.67
2019-04-27T14:20:13.406Z,100473.79
2019-04-27T14:22:45.053Z,100473.00
2019-04-27T14:25:18.100Z,100463.73
2019-04-27T14:27:49.599Z,100466.87
2019-04-27T14:30:21.242Z,100463.27
2019-04-27T14:32:53.028Z,100465.37
2019-04-27T14:35:24.597Z,100460.16
2019-04-27T14:37:58.064Z,100463.88
2019-04-27T14:40:28.848Z,100451.63
2019-04-27T14:43:00.149Z,100459.10
2019-04-27T14:45:31.531Z,100456.09
2019-04-27T14:48:03.110Z,100443.88
2019-04-27T14:50:34.553Z,100445.42
2019-04-27T14:53:08.692Z,100446.47
2019-04-27T14:55:39.888Z,100443.77
2019-04-27T14:58:11.335Z,100439.61
2019-04-27T15:00:43.114Z,100437.27
2019-04-27T15:03:14.537Z,100435.16
2019-04-27T15:05:49.691Z,100436.39
2019-04-27T15:08:19.078Z,100443.09
2019-04-27T15:10:50.501Z,100426.30
2019-04-27T15:13:21.882Z,100422.70
2019-04-27T15:15:53.239Z,100425.41
2019-04-27T15:18:26.463Z,100422.19
2019-04-27T15:20:58.458Z,100423.87
2019-04-27T15:23:30.890Z,100416.41
2019-04-27T15:26:03.116Z,100426.98
2019-04-27T15:28:36.228Z,100416.77
2019-04-27T15:31:26.425Z,100419.70
2019-04-27T15:34:11.839Z,100416.16
2019-04-27T15:36:55.352Z,100420.63
2019-04-27T15:39:39.212Z,100414.48
2019-04-27T15:42:24.736Z,100412.05
2019-04-27T15:44:58.377Z,100410.22
2019-04-27T15:47:29.347Z,100415.14
2019-04-27T15:50:02.465Z,100410.59
2019-04-27T15:52:34.117Z,100406.00
2019-04-27T15:55:09.808Z,100415.38
2019-04-27T15:57:42.474Z,100413.34
2019-04-27T16:00:18.602Z,100408.28
2019-04-27T16:02:52.502Z,100406.28
2019-04-27T16:05:23.583Z,100413.87
2019-04-27T16:07:54.584Z,100408.90
2019-04-27T16:10:25.687Z,100413.01
2019-04-27T16:13:06.382Z,100405.78
2019-04-27T16:15:30.423Z,100413.70
2019-04-27T16:18:01.835Z,100410.92
2019-04-27T16:20:34.777Z,100412.55
2019-04-27T16:23:06.208Z,100416.73
2019-04-27T16:25:47.481Z,100413.09
2019-04-27T16:28:13.365Z,100415.92
2019-04-27T16:30:45.569Z,100414.03
2019-04-27T16:33:20.195Z,100420.89
2019-04-27T16:35:53.141Z,100425.88
2019-04-27T16:38:26.738Z,100426.28
2019-04-27T16:41:03.188Z,100429.39
2019-04-27T16:43:32.957Z,100433.04
2019-04-27T16:46:05.513Z,100432.02
2019-04-27T16:48:38.987Z,100424.41
2019-04-27T16:51:10.732Z,100428.70
2019-04-27T16:53:42.289Z,100424.77
2019-04-27T16:56:18.320Z,100432.77
2019-04-27T17:01:22.757Z,100440.99
2019-04-27T17:03:53.824Z,100440.05
2019-04-27T17:06:24.900Z,100447.41
2019-04-27T17:09:04.776Z,100445.39
2019-04-27T17:11:30.509Z,100437.98
2019-04-27T17:12:41.197Z,100440.09
2019-04-27T17:14:12.600Z,100443.58
2019-04-27T17:16:48.924Z,100449.41
2019-04-27T17:19:22.066Z,100448.66
2019-04-27T17:21:53.620Z,100449.83
2019-04-27T17:24:42.082Z,100450.05
2019-04-27T17:27:11.007Z,100451.52
2019-04-27T17:29:41.071Z,100456.38
2019-04-27T17:32:17.261Z,100462.32
2019-04-27T17:34:48.814Z,100459.77
2019-04-27T17:37:20.364Z,100460.39
2019-04-27T17:39:53.583Z,100461.67
2019-04-27T17:42:27.490Z,100464.09
2019-04-27T17:45:00.486Z,100458.58
2019-04-27T17:47:31.388Z,100455.22
2019-04-27T17:50:02.779Z,100457.83
2019-04-27T17:52:34.142Z,100457.52
2019-04-27T17:55:07.950Z,100454.98
2019-04-27T17:57:39.500Z,100463.86
2019-04-27T18:00:11.775Z,100460.04
2019-04-27T18:02:43.294Z,100459.16
2019-04-27T18:05:15.094Z,100457.45
2019-04-27T18:07:48.558Z,100460.83
2019-04-27T18:10:23.840Z,100464.09
2019-04-27T18:12:52.080Z,100460.38
2019-04-27T18:15:23.591Z,100466.06
2019-04-27T18:17:58.052Z,100464.59
2019-04-27T18:20:30.067Z,100463.83
2019-04-27T18:23:10.592Z,100463.43
2019-04-27T18:25:56.979Z,100462.78
2019-04-27T18:28:32.967Z,100466.15
2019-04-27T18:31:06.003Z,100460.23
2019-04-27T18:33:38.341Z,100461.89
2019-04-27T18:36:14.066Z,100463.27
2019-04-27T18:38:43.409Z,100465.88
2019-04-27T18:41:15.066Z,100464.07
2019-04-27T18:43:52.158Z,100461.22
2019-04-27T18:46:24.461Z,100457.90
2019-04-27T18:48:54.528Z,100463.06
2019-04-27T18:51:40.046Z,100455.66
2019-04-27T18:54:11.587Z,100450.13
2019-04-27T18:56:43.134Z,100446.41
2019-04-27T18:59:14.691Z,100448.61
2019-04-27T19:01:48.843Z,100443.20
2019-04-27T19:04:19.769Z,100448.25
2019-04-27T19:06:50.904Z,100446.51
2019-04-27T19:09:22.325Z,100442.72
2019-04-27T19:11:56.585Z,100441.56
2019-04-27T19:14:28.242Z,100441.20
2019-04-27T19:17:00.004Z,100435.60
2019-04-27T19:19:31.514Z,100437.95
2019-04-27T19:22:03.024Z,100429.14
2019-04-27T19:24:34.632Z,100436.77
2019-04-27T19:27:19.082Z,100441.02
2019-04-27T19:29:54.742Z,100440.19
2019-04-27T19:32:28.152Z,100432.97
2019-04-27T19:34:59.797Z,100434.34
2019-04-27T19:37:31.126Z,100431.02
2019-04-27T19:40:02.682Z,100435.06
2019-04-27T19:42:35.743Z,100424.63
2019-04-27T19:45:07.817Z,100425.60
2019-04-27T19:47:39.254Z,100423.61
2019-04-27T19:50:10.746Z,100422.71
2019-04-27T19:52:42.290Z,100419.97
2019-04-27T19:55:13.991Z,100422.61
2019-04-27T19:57:45.445Z,100426.40
2019-04-27T20:00:19.325Z,100421.23
2019-04-27T20:02:51.069Z,100424.23
2019-04-27T20:05:22.620Z,100420.33
2019-04-27T20:07:54.198Z,100420.65
2019-04-27T20:10:25.691Z,100427.73
2019-04-27T20:12:57.190Z,100424.55
2019-04-27T20:15:28.622Z,100425.35
2019-04-27T20:18:00.834Z,100421.56
2019-04-27T20:20:32.528Z,100418.52
2019-04-27T20:23:04.072Z,100418.73
2019-04-27T20:25:35.951Z,100420.55
2019-04-27T20:28:07.434Z,100419.93
2019-04-27T20:30:38.887Z,100419.09
2019-04-27T20:33:11.074Z,100421.30
2019-04-27T20:35:42.836Z,100423.53
2019-04-27T20:38:14.150Z,100428.41
2019-04-27T20:40:45.510Z,100428.81
2019-04-27T20:43:16.851Z,100434.92
2019-04-27T20:45:51.522Z,100431.45
2019-04-27T20:48:23.202Z,100433.15
2019-04-27T20:50:54.646Z,100430.48
2019-04-27T20:53:30.900Z,100433.58
2019-04-27T20:56:02.036Z,100432.72
2019-04-27T20:58:33.541Z,100428.30
2019-04-27T21:01:05.084Z,100425.88
2019-04-27T21:03:38.185Z,100427.19
2019-04-27T21:06:21.205Z,100423.50
2019-04-27T21:08:52.818Z,100419.25
2019-04-27T21:11:24.209Z,100415.95
2019-04-27T21:13:57.048Z,100416.42
2019-04-27T21:16:28.648Z,100414.11
2019-04-27T21:19:01.706Z,100413.50
2019-04-27T21:21:33.257Z,100417.03
2019-04-27T21:24:04.991Z,100418.83
2019-04-27T21:26:36.708Z,100423.44
2019-04-27T21:29:08.159Z,100426.80
2019-04-27T21:31:41.736Z,100425.39
2019-04-27T21:34:12.218Z,100426.14
2019-04-27T21:36:43.255Z,100423.91
2019-04-27T21:39:14.610Z,100424.20
2019-04-27T21:41:46.208Z,100424.83
2019-04-27T21:44:17.581Z,100423.02
2019-04-27T21:46:49.085Z,100421.65
2019-04-27T21:49:22.120Z,100422.95
2019-04-27T21:52:14.388Z,100422.59
2019-04-27T21:54:45.408Z,100427.77
2019-04-27T21:57:16.794Z,100424.62
2019-04-27T21:59:48.311Z,100426.61
2019-04-27T22:02:20.192Z,100426.29
2019-04-27T22:04:52.333Z,100424.16
2019-04-27T22:07:23.545Z,100418.10
2019-04-27T22:09:54.843Z,100419.30
2019-04-27T22:12:26.310Z,100416.03
2019-04-27T22:14:57.820Z,100411.16
2019-04-27T22:17:29.433Z,100409.14
2019-04-27T22:20:01.630Z,100409.59
2019-04-27T22:22:36.588Z,100406.41
2019-04-27T22:25:11.513Z,100401.56
2019-04-27T22:27:42.765Z,100398.39
2019-04-27T22:30:14.296Z,100397.50
2019-04-27T22:32:45.671Z,100391.50
2019-04-27T22:35:17.120Z,100391.50
2019-04-27T22:37:48.543Z,100387.78
2019-04-27T22:40:24.427Z,100384.94
2019-04-27T22:43:06.826Z,100389.99
2019-04-27T22:45:42.189Z,100388.30
2019-04-27T22:48:13.051Z,100386.47
2019-04-27T22:50:45.491Z,100384.69
2019-04-27T22:53:17.000Z,100377.72
2019-04-27T22:56:06.339Z,100379.12
2019-04-27T22:58:40.662Z,100380.79
2019-04-27T23:01:23.230Z,100378.88
2019-04-27T23:04:06.235Z,100379.87
2019-04-27T23:06:37.539Z,100380.67
2019-04-27T23:09:11.729Z,100380.19
2019-04-27T23:11:43.316Z,100380.47
2019-04-27T23:14:14.713Z,100373.88
2019-04-27T23:16:50.434Z,100380.52
2019-04-27T23:19:21.886Z,100378.93
2019-04-27T23:21:53.352Z,100375.64
2019-04-27T23:24:24.794Z,100377.02
2019-04-27T23:26:56.393Z,100367.33
2019-04-27T23:29:27.846Z,100369.97
2019-04-27T23:32:01.665Z,100366.58
2019-04-27T23:34:33.202Z,100361.73
2019-04-27T23:37:04.558Z,100365.39
2019-04-27T23:39:36.002Z,100361.45
2019-04-27T23:42:07.459Z,100371.06
2019-04-27T23:44:38.803Z,100366.11
2019-04-27T23:47:10.080Z,100359.76
2019-04-27T23:49:41.507Z,100366.59
2019-04-27T23:52:14.607Z,100365.14
2019-04-27T23:54:46.033Z,100364.52
2019-04-27T23:57:17.491Z,100361.67
2019-04-27T23:59:51.382Z,100348.94
